createdAt,value
2017-07-05T00:01:49.588Z,97959.70
2017-07-05T00:04:16.996Z,97961.76
2017-07-05T00:06:44.417Z,97963.34
2017-07-05T00:09:11.859Z,97958.30
2017-07-05T00:11:39.260Z,97957.30
2017-07-05T00:14:06.668Z,97958.93
2017-07-05T00:16:34.091Z,97954.09
2017-07-05T00:19:01.540Z,97960.34
2017-07-05T00:21:28.993Z,97951.31
2017-07-05T00:23:56.473Z,97948.64
2017-07-05T00:26:23.998Z,97951.05
2017-07-05T00:28:52.036Z,97944.90
2017-07-05T00:31:19.480Z,97951.61
2017-07-05T00:33:46.918Z,97951.27
2017-07-05T00:36:14.340Z,97949.44
2017-07-05T00:38:41.757Z,97945.92
2017-07-05T00:41:09.227Z,97940.75
2017-07-05T00:43:36.642Z,97940.44
2017-07-05T00:46:04.085Z,97950.31
2017-07-05T00:48:31.488Z,97945.59
2017-07-05T00:50:58.914Z,97937.50
2017-07-05T00:53:26.331Z,97939.89
2017-07-05T00:55:53.814Z,97938.13
2017-07-05T00:58:21.252Z,97938.27
2017-07-05T01:00:48.686Z,97938.95
2017-07-05T01:03:16.127Z,97939.11
2017-07-05T01:05:43.582Z,97939.53
2017-07-05T01:08:11.023Z,97937.88
2017-07-05T01:10:38.428Z,97934.42
2017-07-05T01:13:05.861Z,97937.40
2017-07-05T01:15:33.306Z,97935.69
2017-07-05T01:18:00.735Z,97938.24
2017-07-05T01:20:28.167Z,97937.11
2017-07-05T01:22:55.580Z,97932.62
2017-07-05T01:25:22.999Z,97937.59
2017-07-05T01:27:50.461Z,97938.62
2017-07-05T01:30:17.866Z,97936.44
2017-07-05T01:32:45.280Z,97931.09
2017-07-05T01:35:12.705Z,97934.61
2017-07-05T01:37:40.156Z,97929.86
2017-07-05T01:40:07.604Z,97935.87
2017-07-05T01:42:35.869Z,97927.91
2017-07-05T01:45:03.327Z,97935.28
2017-07-05T01:47:30.769Z,97930.67
2017-07-05T01:49:58.194Z,97932.70
2017-07-05T01:52:25.648Z,97942.41
2017-07-05T01:54:53.108Z,97949.05
2017-07-05T01:57:20.517Z,97946.89
2017-07-05T01:59:47.949Z,97941.58
2017-07-05T02:02:15.392Z,97945.70
2017-07-05T02:04:42.879Z,97947.52
2017-07-05T02:07:10.242Z,97943.68
2017-07-05T02:09:37.692Z,97940.77
2017-07-05T02:12:05.135Z,97935.80
2017-07-05T02:14:32.545Z,97931.80
2017-07-05T02:16:59.984Z,97932.88
2017-07-05T02:19:27.497Z,97928.35
2017-07-05T02:21:54.974Z,97923.07
2017-07-05T02:24:22.415Z,97916.14
2017-07-05T02:26:49.896Z,97913.81
2017-07-05T02:29:17.356Z,97915.80
2017-07-05T02:31:44.775Z,97912.68
2017-07-05T02:34:12.281Z,97908.47
2017-07-05T02:36:39.711Z,97906.73
2017-07-05T02:39:07.163Z,97909.31
2017-07-05T02:41:34.577Z,97906.19
2017-07-05T02:44:01.995Z,97908.32
2017-07-05T02:46:29.431Z,97911.33
2017-07-05T02:48:56.856Z,97903.07
2017-07-05T02:51:24.268Z,97902.41
2017-07-05T02:53:51.754Z,97899.45
2017-07-05T02:56:19.172Z,97906.14
2017-07-05T02:58:46.609Z,97905.61
2017-07-05T03:01:14.036Z,97901.89
2017-07-05T03:03:41.463Z,97906.35
2017-07-05T03:06:08.928Z,97904.73
2017-07-05T03:08:36.345Z,97898.94
2017-07-05T03:11:03.788Z,97898.94
2017-07-05T03:13:31.229Z,97894.12
2017-07-05T03:15:58.677Z,97894.94
2017-07-05T03:18:26.083Z,97894.38
2017-07-05T03:20:53.497Z,97893.27
2017-07-05T03:23:20.931Z,97895.42
2017-07-05T03:25:48.378Z,97888.13
2017-07-05T03:28:15.919Z,97889.94
2017-07-05T03:30:43.452Z,97888.82
2017-07-05T03:33:10.864Z,97890.03
2017-07-05T03:35:38.278Z,97889.05
2017-07-05T03:38:05.712Z,97890.97
2017-07-05T03:40:33.120Z,97891.34
2017-07-05T03:43:00.603Z,97897.66
2017-07-05T03:45:28.017Z,97896.69
2017-07-05T03:47:55.548Z,97896.51
2017-07-05T03:50:22.989Z,97898.27
2017-07-05T03:52:50.466Z,97893.73
2017-07-05T03:55:17.949Z,97895.97
2017-07-05T03:57:45.371Z,97903.16
2017-07-05T04:00:12.788Z,97896.77
2017-07-05T04:02:40.222Z,97902.98
2017-07-05T04:05:07.769Z,97900.91
2017-07-05T04:07:35.411Z,97900.33
2017-07-05T04:10:02.831Z,97904.81
2017-07-05T04:12:30.285Z,97910.45
2017-07-05T04:14:57.695Z,97904.03
2017-07-05T04:17:25.110Z,97901.31
2017-07-05T04:19:52.541Z,97904.78
2017-07-05T04:22:19.963Z,97900.23
2017-07-05T04:24:47.578Z,97907.31
2017-07-05T04:27:15.002Z,97906.45
2017-07-05T04:29:42.472Z,97902.31
2017-07-05T04:32:09.925Z,97903.28
2017-07-05T04:34:37.387Z,97905.73
2017-07-05T04:37:04.792Z,97909.52
2017-07-05T04:39:32.216Z,97907.76
2017-07-05T04:41:59.701Z,97911.62
2017-07-05T04:44:27.217Z,97913.81
2017-07-05T04:46:54.627Z,97919.96
2017-07-05T04:49:22.081Z,97919.24
2017-07-05T04:51:49.532Z,97911.28
2017-07-05T04:54:16.942Z,97913.21
2017-07-05T04:56:44.398Z,97912.13
2017-07-05T04:59:11.952Z,97915.87
2017-07-05T05:01:39.465Z,97915.57
2017-07-05T05:04:06.908Z,97917.56
2017-07-05T05:06:34.329Z,97919.09
2017-07-05T05:09:01.795Z,97912.34
2017-07-05T05:11:29.206Z,97912.58
2017-07-05T05:13:56.625Z,97911.73
2017-07-05T05:16:24.059Z,97915.02
2017-07-05T05:18:52.313Z,97915.61
2017-07-05T05:21:19.718Z,97919.25
2017-07-05T05:23:47.165Z,97917.94
2017-07-05T05:26:14.578Z,97919.89
2017-07-05T05:28:42.074Z,97917.52
2017-07-05T05:31:09.528Z,97914.17
2017-07-05T05:33:36.982Z,97918.59
2017-07-05T05:36:04.405Z,97915.18
2017-07-05T05:38:31.861Z,97909.00
2017-07-05T05:40:59.293Z,97919.78
2017-07-05T05:43:26.740Z,97913.48
2017-07-05T05:45:54.172Z,97913.84
2017-07-05T05:48:21.598Z,97918.94
2017-07-05T05:50:49.156Z,97918.98
2017-07-05T05:53:16.744Z,97918.41
2017-07-05T05:55:44.176Z,97919.33
2017-07-05T05:58:11.580Z,97912.97
2017-07-05T06:00:39.006Z,97916.66
2017-07-05T06:03:06.443Z,97915.53
2017-07-05T06:05:33.941Z,97910.98
2017-07-05T06:08:01.388Z,97914.22
2017-07-05T06:10:28.795Z,97920.19
2017-07-05T06:12:56.277Z,97918.19
2017-07-05T06:15:23.728Z,97918.13
2017-07-05T06:17:51.164Z,97917.38
2017-07-05T06:20:18.598Z,97919.83
2017-07-05T06:22:46.033Z,97922.24
2017-07-05T06:25:13.487Z,97913.27
2017-07-05T06:27:40.891Z,97919.01
2017-07-05T06:30:08.337Z,97920.36
2017-07-05T06:32:35.786Z,97916.55
2017-07-05T06:35:03.223Z,97913.77
2017-07-05T06:37:30.637Z,97909.00
2017-07-05T06:39:58.048Z,97910.22
2017-07-05T06:42:25.501Z,97913.31
2017-07-05T06:44:52.972Z,97913.59
2017-07-05T06:47:20.384Z,97903.63
2017-07-05T06:49:47.812Z,97906.91
2017-07-05T06:52:15.252Z,97911.23
2017-07-05T06:54:42.696Z,97918.56
2017-07-05T06:57:10.174Z,97915.13
2017-07-05T06:59:37.599Z,97920.64
2017-07-05T07:02:05.049Z,97921.83
2017-07-05T07:04:32.464Z,97923.24
2017-07-05T07:06:59.893Z,97922.24
2017-07-05T07:09:27.340Z,97927.49
2017-07-05T07:11:54.797Z,97921.75
2017-07-05T07:14:22.261Z,97921.56
2017-07-05T07:16:49.689Z,97917.19
2017-07-05T07:19:17.113Z,97919.28
2017-07-05T07:21:44.557Z,97922.05
2017-07-05T07:24:11.987Z,97917.32
2017-07-05T07:26:39.425Z,97919.41
2017-07-05T07:29:06.845Z,97915.47
2017-07-05T07:31:34.318Z,97915.14
2017-07-05T07:34:01.768Z,97911.81
2017-07-05T07:36:29.214Z,97912.58
2017-07-05T07:38:56.669Z,97912.67
2017-07-05T07:41:24.104Z,97913.33
2017-07-05T07:43:51.509Z,97912.61
2017-07-05T07:46:18.977Z,97918.69
2017-07-05T07:48:46.402Z,97916.55
2017-07-05T07:51:13.861Z,97908.94
2017-07-05T07:53:41.317Z,97915.27
2017-07-05T07:56:08.745Z,97906.08
2017-07-05T07:58:36.207Z,97908.89
2017-07-05T08:01:03.620Z,97912.34
2017-07-05T08:03:31.039Z,97911.19
2017-07-05T08:05:58.495Z,97909.36
2017-07-05T08:08:25.897Z,97912.63
2017-07-05T08:10:53.346Z,97906.64
2017-07-05T08:13:20.760Z,97906.52
2017-07-05T08:15:48.216Z,97903.11
2017-07-05T08:18:15.672Z,97910.19
2017-07-05T08:20:43.113Z,97905.77
2017-07-05T08:23:10.596Z,97904.03
2017-07-05T08:25:38.005Z,97903.43
2017-07-05T08:28:05.460Z,97904.30
2017-07-05T08:30:32.896Z,97903.41
2017-07-05T08:33:00.349Z,97899.85
2017-07-05T08:35:27.793Z,97899.35
2017-07-05T08:37:55.228Z,97898.60
2017-07-05T08:40:22.635Z,97898.45
2017-07-05T08:42:50.073Z,97896.89
2017-07-05T08:45:17.576Z,97898.95
2017-07-05T08:47:45.014Z,97901.33
2017-07-05T08:50:12.473Z,97899.02
2017-07-05T08:52:40.041Z,97899.78
2017-07-05T08:55:07.653Z,97905.19
2017-07-05T08:57:35.206Z,97904.56
2017-07-05T09:00:02.687Z,97906.96
2017-07-05T09:02:30.151Z,97905.37
2017-07-05T09:04:57.566Z,97911.73
2017-07-05T09:07:24.975Z,97907.03
2017-07-05T09:09:52.413Z,97909.80
2017-07-05T09:12:19.871Z,97902.91
2017-07-05T09:14:47.399Z,97903.68
2017-07-05T09:17:15.165Z,97900.77
2017-07-05T09:19:42.640Z,97903.33
2017-07-05T09:22:10.210Z,97895.20
2017-07-05T09:24:37.658Z,97892.65
2017-07-05T09:27:05.093Z,97891.63
2017-07-05T09:29:32.526Z,97892.97
2017-07-05T09:31:59.928Z,97885.47
2017-07-05T09:34:27.402Z,97888.23
2017-07-05T09:36:54.831Z,97887.48
2017-07-05T09:39:22.357Z,97890.25
2017-07-05T09:41:49.860Z,97889.02
2017-07-05T09:44:17.298Z,97892.79
2017-07-05T09:46:44.732Z,97898.31
2017-07-05T09:49:12.200Z,97892.89
2017-07-05T09:51:39.632Z,97893.27
2017-07-05T09:54:07.021Z,97900.82
2017-07-05T09:56:34.465Z,97903.94
2017-07-05T09:59:01.900Z,97900.95
2017-07-05T10:01:29.353Z,97907.70
2017-07-05T10:03:56.773Z,97906.72
2017-07-05T10:06:24.219Z,97907.28
2017-07-05T10:08:51.645Z,97902.60
2017-07-05T10:11:19.053Z,97894.58
2017-07-05T10:13:46.614Z,97902.17
2017-07-05T10:16:14.160Z,97894.67
2017-07-05T10:18:41.599Z,97891.78
2017-07-05T10:21:09.092Z,97885.25
2017-07-05T10:23:36.781Z,97890.41
2017-07-05T10:26:04.229Z,97883.70
2017-07-05T10:28:32.170Z,97884.59
2017-07-05T10:30:59.800Z,97882.87
2017-07-05T10:33:27.282Z,97874.11
2017-07-05T10:35:54.782Z,97879.41
2017-07-05T10:38:22.310Z,97879.23
2017-07-05T10:40:49.740Z,97880.42
2017-07-05T10:43:17.229Z,97881.05
2017-07-05T10:45:44.653Z,97882.06
2017-07-05T10:48:12.108Z,97875.65
2017-07-05T10:50:39.568Z,97873.16
2017-07-05T10:53:06.969Z,97869.66
2017-07-05T10:55:34.497Z,97875.23
2017-07-05T10:58:01.930Z,97872.27
2017-07-05T11:00:29.333Z,97870.39
2017-07-05T11:02:56.803Z,97861.88
2017-07-05T11:05:24.315Z,97858.75
2017-07-05T11:07:51.792Z,97859.06
2017-07-05T11:10:19.228Z,97855.17
2017-07-05T11:12:46.693Z,97853.48
2017-07-05T11:15:14.095Z,97852.88
2017-07-05T11:17:41.611Z,97847.75
2017-07-05T11:20:09.054Z,97849.73
2017-07-05T11:22:36.508Z,97839.55
2017-07-05T11:25:03.972Z,97840.89
2017-07-05T11:27:31.416Z,97837.01
2017-07-05T11:29:58.849Z,97839.78
2017-07-05T11:32:26.297Z,97833.04
2017-07-05T11:34:53.720Z,97828.02
2017-07-05T11:37:21.308Z,97822.08
2017-07-05T11:39:48.723Z,97815.41
2017-07-05T11:42:16.141Z,97816.64
2017-07-05T11:44:43.588Z,97814.84
2017-07-05T11:47:11.007Z,97817.89
2017-07-05T11:49:38.439Z,97813.21
2017-07-05T11:52:05.862Z,97815.39
2017-07-05T11:54:33.289Z,97817.59
2017-07-05T11:57:00.712Z,97817.55
2017-07-05T11:59:28.180Z,97815.14
2017-07-05T12:01:55.592Z,97815.05
2017-07-05T12:04:23.013Z,97817.53
2017-07-05T12:06:50.457Z,97812.09
2017-07-05T12:09:17.868Z,97805.47
2017-07-05T12:11:45.324Z,97806.77
2017-07-05T12:14:12.738Z,97803.76
2017-07-05T12:16:40.179Z,97799.48
2017-07-05T12:19:07.619Z,97804.30
2017-07-05T12:21:35.061Z,97797.91
2017-07-05T12:24:02.474Z,97792.02
2017-07-05T12:26:29.908Z,97788.19
2017-07-05T12:28:57.353Z,97795.41
2017-07-05T12:31:24.845Z,97787.03
2017-07-05T12:33:52.254Z,97785.88
2017-07-05T12:36:19.679Z,97787.38
2017-07-05T12:38:47.155Z,97775.94
2017-07-05T12:41:14.588Z,97783.95
2017-07-05T12:43:42.048Z,97784.42
2017-07-05T12:46:09.531Z,97783.48
2017-07-05T12:48:37.057Z,97783.64
2017-07-05T12:51:04.484Z,97779.48
2017-07-05T12:53:31.997Z,97779.40
2017-07-05T12:55:59.491Z,97772.98
2017-07-05T12:58:26.931Z,97771.17
2017-07-05T13:00:54.330Z,97767.14
2017-07-05T13:03:21.755Z,97771.66
2017-07-05T13:05:49.197Z,97774.57
2017-07-05T13:08:16.629Z,97769.09
2017-07-05T13:10:44.076Z,97766.67
2017-07-05T13:13:11.493Z,97770.80
2017-07-05T13:15:38.933Z,97765.13
2017-07-05T13:18:06.430Z,97762.28
2017-07-05T13:20:33.854Z,97763.42
2017-07-05T13:23:01.353Z,97762.28
2017-07-05T13:25:28.781Z,97769.70
2017-07-05T13:27:56.196Z,97773.81
2017-07-05T13:30:23.644Z,97762.31
2017-07-05T13:32:51.072Z,97760.17
2017-07-05T13:35:18.486Z,97764.95
2017-07-05T13:37:45.952Z,97758.78
2017-07-05T13:40:13.366Z,97753.86
2017-07-05T13:42:40.805Z,97752.98
2017-07-05T13:45:08.314Z,97746.76
2017-07-05T13:47:35.735Z,97756.61
2017-07-05T13:50:03.243Z,97754.95
2017-07-05T13:57:50.076Z,97762.22
2017-07-05T14:00:17.559Z,97755.73
2017-07-05T14:02:44.980Z,97755.13
2017-07-05T14:05:12.429Z,97751.87
2017-07-05T14:07:39.976Z,97759.44
2017-07-05T14:10:07.468Z,97759.43
2017-07-05T14:12:34.931Z,97751.55
2017-07-05T14:15:02.380Z,97747.32
2017-07-05T14:17:29.870Z,97741.93
2017-07-05T14:19:57.373Z,97745.92
2017-07-05T14:22:24.832Z,97748.33
2017-07-05T14:24:52.305Z,97743.88
2017-07-05T14:27:19.774Z,97743.96
2017-07-05T14:29:47.277Z,97749.48
2017-07-05T14:32:15.072Z,97735.98
2017-07-05T14:34:43.086Z,97743.59
2017-07-05T14:37:10.619Z,97743.66
2017-07-05T14:39:38.201Z,97744.39
2017-07-05T14:42:05.627Z,97741.59
2017-07-05T14:44:33.145Z,97735.45
2017-07-05T14:47:00.665Z,97739.53
2017-07-05T14:49:28.255Z,97735.19
2017-07-05T14:51:55.781Z,97734.71
2017-07-05T14:54:23.280Z,97734.63
2017-07-05T14:56:50.752Z,97745.23
2017-07-05T14:59:18.192Z,97744.97
2017-07-05T15:01:45.605Z,97745.73
2017-07-05T15:04:13.041Z,97740.91
2017-07-05T15:06:40.479Z,97743.67
2017-07-05T15:09:08.033Z,97745.50
2017-07-05T15:11:36.271Z,97737.05
2017-07-05T15:14:03.689Z,97753.25
2017-07-05T15:16:31.140Z,97739.06
2017-07-05T15:18:58.562Z,97746.90
2017-07-05T15:21:25.968Z,97739.97
2017-07-05T15:23:53.414Z,97744.16
2017-07-05T15:26:20.932Z,97747.97
2017-07-05T15:28:48.328Z,97747.72
2017-07-05T15:31:15.808Z,97745.96
2017-07-05T15:33:43.249Z,97746.66
2017-07-05T15:36:11.316Z,97754.62
2017-07-05T15:38:38.871Z,97752.70
2017-07-05T15:41:07.025Z,97757.66
2017-07-05T15:43:34.460Z,97753.31
2017-07-05T15:46:02.945Z,97742.95
2017-07-05T15:48:30.443Z,97752.23
2017-07-05T15:50:57.886Z,97748.95
2017-07-05T15:53:25.837Z,97738.37
2017-07-05T15:55:53.344Z,97745.30
2017-07-05T15:58:20.841Z,97744.12
2017-07-05T16:00:48.340Z,97742.31
2017-07-05T16:03:15.822Z,97745.02
2017-07-05T16:05:43.249Z,97743.74
2017-07-05T16:08:10.668Z,97741.45
2017-07-05T16:10:38.127Z,97743.36
2017-07-05T16:13:05.549Z,97737.09
2017-07-05T16:15:33.146Z,97743.09
2017-07-05T16:18:00.578Z,97742.88
2017-07-05T16:20:28.029Z,97739.48
2017-07-05T16:22:55.488Z,97742.68
2017-07-05T16:25:22.993Z,97736.05
2017-07-05T16:27:50.426Z,97739.96
2017-07-05T16:30:17.849Z,97741.66
2017-07-05T16:32:45.336Z,97738.61
2017-07-05T16:35:12.880Z,97743.70
2017-07-05T16:37:40.352Z,97740.62
2017-07-05T16:40:07.776Z,97744.02
2017-07-05T16:42:35.216Z,97741.28
2017-07-05T16:45:02.650Z,97745.64
2017-07-05T16:47:30.092Z,97741.19
2017-07-05T16:49:57.492Z,97747.39
2017-07-05T16:52:24.987Z,97736.17
2017-07-05T16:54:52.568Z,97743.29
2017-07-05T16:57:20.072Z,97742.08
2017-07-05T16:59:47.500Z,97747.11
2017-07-05T17:02:14.964Z,97746.97
2017-07-05T17:04:43.005Z,97743.84
2017-07-05T17:07:10.438Z,97742.71
2017-07-05T17:09:37.864Z,97748.77
2017-07-05T17:12:05.333Z,97748.45
2017-07-05T17:14:32.779Z,97747.98
2017-07-05T17:17:00.189Z,97741.84
2017-07-05T17:19:27.656Z,97744.89
2017-07-05T17:21:55.117Z,97752.02
2017-07-05T17:24:22.517Z,97742.55
2017-07-05T17:26:50.033Z,97747.39
2017-07-05T17:29:17.508Z,97749.13
2017-07-05T17:31:44.952Z,97747.21
2017-07-05T17:34:12.841Z,97752.33
2017-07-05T17:36:40.281Z,97750.49
2017-07-05T17:39:07.733Z,97753.57
2017-07-05T17:41:35.186Z,97758.37
2017-07-05T17:44:02.635Z,97754.27
2017-07-05T17:46:30.059Z,97759.42
2017-07-05T17:48:57.475Z,97758.39
2017-07-05T17:51:24.915Z,97756.22
2017-07-05T17:53:52.328Z,97754.17
2017-07-05T17:56:19.762Z,97758.33
2017-07-05T17:58:47.225Z,97749.80
2017-07-05T18:01:14.648Z,97751.61
2017-07-05T18:03:42.118Z,97749.33
2017-07-05T18:06:09.528Z,97751.41
2017-07-05T18:08:36.966Z,97744.37
2017-07-05T18:11:04.401Z,97753.93
2017-07-05T18:13:31.861Z,97746.47
2017-07-05T18:15:59.314Z,97752.23
2017-07-05T18:18:26.727Z,97749.70
2017-07-05T18:20:54.254Z,97746.89
2017-07-05T18:23:21.706Z,97747.88
2017-07-05T18:25:49.140Z,97758.47
2017-07-05T18:28:16.564Z,97755.13
2017-07-05T18:30:44.013Z,97758.10
2017-07-05T18:33:11.440Z,97759.81
2017-07-05T18:35:38.893Z,97759.61
2017-07-05T18:38:06.340Z,97765.41
2017-07-05T18:40:33.752Z,97763.77
2017-07-05T18:43:01.214Z,97758.68
2017-07-05T18:45:28.672Z,97762.13
2017-07-05T18:47:56.069Z,97760.37
2017-07-05T18:50:23.544Z,97764.86
2017-07-05T18:52:50.981Z,97763.49
2017-07-05T18:55:18.461Z,97766.06
2017-07-05T18:57:45.945Z,97765.28
2017-07-05T19:00:13.355Z,97766.08
2017-07-05T19:02:40.819Z,97767.27
2017-07-05T19:05:08.253Z,97768.45
2017-07-05T19:07:35.732Z,97769.44
2017-07-05T19:10:03.249Z,97773.99
2017-07-05T19:12:30.665Z,97771.67
2017-07-05T19:14:58.098Z,97772.30
2017-07-05T19:17:25.537Z,97772.70
2017-07-05T19:19:53.007Z,97777.29
2017-07-05T19:22:20.424Z,97772.34
2017-07-05T19:24:47.855Z,97774.33
2017-07-05T19:27:15.259Z,97778.14
2017-07-05T19:29:42.734Z,97784.08
2017-07-05T19:32:10.301Z,97785.86
2017-07-05T19:34:37.760Z,97788.07
2017-07-05T19:37:05.240Z,97789.66
2017-07-05T19:39:32.932Z,97795.81
2017-07-05T19:42:00.364Z,97798.38
2017-07-05T19:44:27.813Z,97806.08
2017-07-05T19:46:55.293Z,97807.48
2017-07-05T19:49:22.778Z,97818.34
2017-07-05T19:51:50.234Z,97814.37
2017-07-05T19:54:17.719Z,97821.45
2017-07-05T19:56:45.280Z,97826.36
2017-07-05T19:59:12.727Z,97832.67
2017-07-05T20:01:40.181Z,97833.62
2017-07-05T20:04:07.670Z,97830.28
2017-07-05T20:06:35.139Z,97831.05
2017-07-05T20:09:02.568Z,97836.33
2017-07-05T20:11:29.993Z,97836.52
2017-07-05T20:13:57.489Z,97836.83
2017-07-05T20:16:24.913Z,97838.97
2017-07-05T20:18:52.445Z,97842.31
2017-07-05T20:21:19.869Z,97841.34
2017-07-05T20:23:47.428Z,97841.88
2017-07-05T20:26:14.896Z,97835.55
2017-07-05T20:28:42.356Z,97840.41
2017-07-05T20:31:09.794Z,97837.66
2017-07-05T20:33:37.254Z,97840.14
2017-07-05T20:36:04.748Z,97842.25
2017-07-05T20:38:32.303Z,97841.16
2017-07-05T20:40:59.754Z,97844.48
2017-07-05T20:43:27.269Z,97846.45
2017-07-05T20:45:54.708Z,97843.87
2017-07-05T20:48:22.149Z,97851.42
2017-07-05T20:50:49.569Z,97845.13
2017-07-05T20:53:17.197Z,97845.21
2017-07-05T20:55:44.657Z,97852.63
2017-07-05T20:58:12.082Z,97851.56
2017-07-05T21:00:39.723Z,97850.02
2017-07-05T21:03:07.095Z,97852.37
2017-07-05T21:05:34.532Z,97855.70
2017-07-05T21:08:01.980Z,97848.81
2017-07-05T21:10:29.389Z,97856.07
2017-07-05T21:12:56.870Z,97855.23
2017-07-05T21:15:24.295Z,97859.82
2017-07-05T21:17:51.701Z,97859.60
2017-07-05T21:20:19.214Z,97856.12
2017-07-05T21:22:46.630Z,97859.39
2017-07-05T21:25:14.071Z,97858.30
2017-07-05T21:27:41.507Z,97859.27
2017-07-05T21:30:08.977Z,97864.22
2017-07-05T21:32:36.389Z,97855.79
2017-07-05T21:35:03.816Z,97855.63
2017-07-05T21:37:31.313Z,97858.02
2017-07-05T21:39:58.723Z,97852.28
2017-07-05T21:42:26.168Z,97861.84
2017-07-05T21:44:53.589Z,97865.52
2017-07-05T21:47:20.987Z,97862.27
2017-07-05T21:49:48.433Z,97864.38
2017-07-05T21:52:15.877Z,97862.36
2017-07-05T21:54:43.325Z,97866.42
2017-07-05T21:57:10.782Z,97866.87
2017-07-05T21:59:38.183Z,97863.05
2017-07-05T22:02:05.595Z,97866.13
2017-07-05T22:04:33.060Z,97864.11
2017-07-05T22:07:00.516Z,97869.77
2017-07-05T22:09:27.915Z,97870.06
2017-07-05T22:11:55.465Z,97874.89
2017-07-05T22:14:22.937Z,97874.73
2017-07-05T22:16:50.388Z,97873.19
2017-07-05T22:19:17.841Z,97868.09
2017-07-05T22:21:45.272Z,97866.87
2017-07-05T22:24:12.729Z,97869.05
2017-07-05T22:26:40.149Z,97869.83
2017-07-05T22:29:07.570Z,97873.41
2017-07-05T22:31:35.021Z,97876.47
2017-07-05T22:34:02.462Z,97881.89
2017-07-05T22:36:29.982Z,97883.23
2017-07-05T22:38:57.461Z,97883.00
2017-07-05T22:41:24.929Z,97882.60
2017-07-05T22:43:52.351Z,97886.90
2017-07-05T22:46:19.776Z,97882.17
2017-07-05T22:48:47.185Z,97889.91
2017-07-05T22:51:14.641Z,97891.03
2017-07-05T22:53:42.073Z,97892.63
2017-07-05T22:56:09.628Z,97892.94
2017-07-05T22:58:37.042Z,97894.75
2017-07-05T23:01:04.456Z,97886.75
2017-07-05T23:03:31.894Z,97887.83
2017-07-05T23:05:59.301Z,97895.83
2017-07-05T23:08:26.753Z,97897.37
2017-07-05T23:10:54.208Z,97888.28
2017-07-05T23:13:21.761Z,97891.95
2017-07-05T23:15:49.160Z,97884.66
2017-07-05T23:18:16.575Z,97888.00
2017-07-05T23:20:44.041Z,97889.52
2017-07-05T23:23:11.488Z,97881.87
2017-07-05T23:25:38.893Z,97889.30
2017-07-05T23:28:06.394Z,97887.25
2017-07-05T23:30:33.824Z,97889.87
2017-07-05T23:33:01.269Z,97887.32
2017-07-05T23:35:28.682Z,97888.75
2017-07-05T23:37:56.107Z,97892.61
2017-07-05T23:40:23.549Z,97886.96
2017-07-05T23:42:50.960Z,97895.14
2017-07-05T23:45:18.425Z,97891.30
2017-07-05T23:47:45.944Z,97892.45
2017-07-05T23:50:13.377Z,97891.02
2017-07-05T23:52:40.855Z,97891.95
2017-07-05T23:55:08.262Z,97894.23
2017-07-05T23:57:35.672Z,97893.72
